sensor_id;sensor_type;location;lat;lon;timestamp;pressure;altitude;pressure_sealevel;temperature;humidity
53868;BME280;41577;47.470;19.080;2023-05-09T00:00:07;100999.75;;;8.57;64.84
53868;BME280;41577;47.470;19.080;2023-05-09T00:00:19;101004.25;;;8.57;65.21
53868;BME280;41577;47.470;19.080;2023-05-09T00:00:31;100998.09;;;8.56;64.87
53868;BME280;41577;47.470;19.080;2023-05-09T00:00:43;100998.91;;;8.57;65.10
53868;BME280;41577;47.470;19.080;2023-05-09T00:00:55;100995.44;;;8.56;65.06
53868;BME280;41577;47.470;19.080;2023-05-09T00:01:09;100998.91;;;8.57;65.23
53868;BME280;41577;47.470;19.080;2023-05-09T00:01:21;101001.56;;;8.57;64.72
53868;BME280;41577;47.470;19.080;2023-05-09T00:01:33;100998.09;;;8.56;64.97
53868;BME280;41577;47.470;19.080;2023-05-09T00:01:45;101005.25;;;8.56;64.92
53868;BME280;41577;47.470;19.080;2023-05-09T00:01:57;100999.94;;;8.56;64.72
53868;BME280;41577;47.470;19.080;2023-05-09T00:02:09;100999.09;;;8.55;65.31
53868;BME280;41577;47.470;19.080;2023-05-09T00:02:21;101005.25;;;8.56;64.97
53868;BME280;41577;47.470;19.080;2023-05-09T00:02:33;100999.09;;;8.55;65.16
53868;BME280;41577;47.470;19.080;2023-05-09T00:02:45;101001.06;;;8.53;65.29
53868;BME280;41577;47.470;19.080;2023-05-09T00:02:56;100998.25;;;8.55;64.82
53868;BME280;41577;47.470;19.080;2023-05-09T00:03:08;100990.25;;;8.55;65.16
53868;BME280;41577;47.470;19.080;2023-05-09T00:03:20;101002.59;;;8.56;64.65
53868;BME280;41577;47.470;19.080;2023-05-09T00:03:32;100998.25;;;8.55;65.03
53868;BME280;41577;47.470;19.080;2023-05-09T00:03:43;101002.72;;;8.54;64.77
53868;BME280;41577;47.470;19.080;2023-05-09T00:03:55;100998.41;;;8.53;64.74
53868;BME280;41577;47.470;19.080;2023-05-09T00:04:07;100996.59;;;8.54;64.71
53868;BME280;41577;47.470;19.080;2023-05-09T00:04:19;100994.75;;;8.54;64.75
53868;BME280;41577;47.470;19.080;2023-05-09T00:04:31;100994.75;;;8.54;65.41
53868;BME280;41577;47.470;19.080;2023-05-09T00:04:42;100990.44;;;8.53;65.14
53868;BME280;41577;47.470;19.080;2023-05-09T00:04:55;101003.75;;;8.53;65.47
53868;BME280;41577;47.470;19.080;2023-05-09T00:05:07;100998.41;;;8.53;64.88
53868;BME280;41577;47.470;19.080;2023-05-09T00:05:19;100995.75;;;8.53;65.49
53868;BME280;41577;47.470;19.080;2023-05-09T00:05:30;100992.22;;;8.53;65.19
53868;BME280;41577;47.470;19.080;2023-05-09T00:05:42;100996.59;;;8.54;65.19
53868;BME280;41577;47.470;19.080;2023-05-09T00:05:54;100994.06;;;8.52;65.02
53868;BME280;41577;47.470;19.080;2023-05-09T00:06:06;100996.72;;;8.52;65.61
53868;BME280;41577;47.470;19.080;2023-05-09T00:06:18;101000.22;;;8.53;65.36
53868;BME280;41577;47.470;19.080;2023-05-09T00:06:29;101002.88;;;8.53;65.40
53868;BME280;41577;47.470;19.080;2023-05-09T00:06:41;100995.75;;;8.53;65.42
53868;BME280;41577;47.470;19.080;2023-05-09T00:06:53;100992.22;;;8.53;65.77
53868;BME280;41577;47.470;19.080;2023-05-09T00:07:05;100995.75;;;8.53;65.18
53868;BME280;41577;47.470;19.080;2023-05-09T00:07:16;101001.06;;;8.53;65.46
53868;BME280;41577;47.470;19.080;2023-05-09T00:07:28;100996.59;;;8.54;65.89
53868;BME280;41577;47.470;19.080;2023-05-09T00:07:40;100993.91;;;8.54;65.57
53868;BME280;41577;47.470;19.080;2023-05-09T00:07:51;101001.06;;;8.53;65.54
53868;BME280;41577;47.470;19.080;2023-05-09T00:08:04;101001.06;;;8.53;65.43
53868;BME280;41577;47.470;19.080;2023-05-09T00:08:15;101000.22;;;8.53;65.57
53868;BME280;41577;47.470;19.080;2023-05-09T00:08:27;101004.72;;;8.52;65.24
53868;BME280;41577;47.470;19.080;2023-05-09T00:08:39;101002.06;;;8.52;65.15
53868;BME280;41577;47.470;19.080;2023-05-09T00:08:50;100996.91;;;8.51;65.18
53868;BME280;41577;47.470;19.080;2023-05-09T00:09:02;101000.22;;;8.53;65.36
53868;BME280;41577;47.470;19.080;2023-05-09T00:09:14;101001.22;;;8.52;65.48
53868;BME280;41577;47.470;19.080;2023-05-09T00:09:27;100999.41;;;8.52;65.34
53868;BME280;41577;47.470;19.080;2023-05-09T00:09:39;101006.41;;;8.53;65.60
53868;BME280;41577;47.470;19.080;2023-05-09T00:09:50;100999.41;;;8.52;65.73
53868;BME280;41577;47.470;19.080;2023-05-09T00:10:02;100997.75;;;8.51;65.07
53868;BME280;41577;47.470;19.080;2023-05-09T00:10:14;100995.91;;;8.52;65.38
53868;BME280;41577;47.470;19.080;2023-05-09T00:10:26;101001.06;;;8.53;64.89
53868;BME280;41577;47.470;19.080;2023-05-09T00:10:38;101001.91;;;8.54;64.99
53868;BME280;41577;47.470;19.080;2023-05-09T00:10:50;101002.88;;;8.53;64.94
53868;BME280;41577;47.470;19.080;2023-05-09T00:11:01;100995.91;;;8.52;65.26
53868;BME280;41577;47.470;19.080;2023-05-09T00:11:13;101005.72;;;8.51;65.30
53868;BME280;41577;47.470;19.080;2023-05-09T00:11:25;100996.72;;;8.52;65.36
53868;BME280;41577;47.470;19.080;2023-05-09T00:11:36;100992.41;;;8.51;65.66
53868;BME280;41577;47.470;19.080;2023-05-09T00:11:48;100997.88;;;8.50;65.64
53868;BME280;41577;47.470;19.080;2023-05-09T00:12:00;100995.06;;;8.51;65.28
53868;BME280;41577;47.470;19.080;2023-05-09T00:12:12;101000.53;;;8.50;65.67
53868;BME280;41577;47.470;19.080;2023-05-09T00:12:23;100997.88;;;8.50;65.20
53868;BME280;41577;47.470;19.080;2023-05-09T00:12:35;100999.72;;;8.49;65.39
53868;BME280;41577;47.470;19.080;2023-05-09T00:12:47;100993.56;;;8.49;65.62
53868;BME280;41577;47.470;19.080;2023-05-09T00:12:58;100994.53;;;8.48;65.54
53868;BME280;41577;47.470;19.080;2023-05-09T00:13:10;100996.22;;;8.49;65.76
53868;BME280;41577;47.470;19.080;2023-05-09T00:13:22;100998.88;;;8.49;65.15
53868;BME280;41577;47.470;19.080;2023-05-09T00:13:34;100997.06;;;8.49;65.35
53868;BME280;41577;47.470;19.080;2023-05-09T00:13:46;100992.72;;;8.48;65.52
53868;BME280;41577;47.470;19.080;2023-05-09T00:13:57;101001.69;;;8.47;65.82
53868;BME280;41577;47.470;19.080;2023-05-09T00:14:09;101002.53;;;8.48;65.29
53868;BME280;41577;47.470;19.080;2023-05-09T00:14:21;100998.22;;;8.47;65.63
53868;BME280;41577;47.470;19.080;2023-05-09T00:14:33;100998.22;;;8.47;65.15
53868;BME280;41577;47.470;19.080;2023-05-09T00:14:44;100999.88;;;8.48;65.17
53868;BME280;41577;47.470;19.080;2023-05-09T00:14:56;100999.03;;;8.47;65.32
53868;BME280;41577;47.470;19.080;2023-05-09T00:15:09;101002.72;;;8.46;65.70
53868;BME280;41577;47.470;19.080;2023-05-09T00:15:21;101000.03;;;8.46;65.29
53868;BME280;41577;47.470;19.080;2023-05-09T00:15:32;100999.19;;;8.46;65.77
53868;BME280;41577;47.470;19.080;2023-05-09T00:15:44;100996.53;;;8.46;65.44
53868;BME280;41577;47.470;19.080;2023-05-09T00:15:56;100994.72;;;8.46;65.73
53868;BME280;41577;47.470;19.080;2023-05-09T00:16:08;100995.69;;;8.45;65.65
53868;BME280;41577;47.470;19.080;2023-05-09T00:16:19;100990.38;;;8.45;65.39
53868;BME280;41577;47.470;19.080;2023-05-09T00:16:31;100994.72;;;8.46;65.74
53868;BME280;41577;47.470;19.080;2023-05-09T00:16:43;100994.72;;;8.46;65.65
53868;BME280;41577;47.470;19.080;2023-05-09T00:16:55;100999.19;;;8.46;66.13
53868;BME280;41577;47.470;19.080;2023-05-09T00:17:07;100993.03;;;8.45;65.53
53868;BME280;41577;47.470;19.080;2023-05-09T00:17:18;100995.69;;;8.45;65.59
53868;BME280;41577;47.470;19.080;2023-05-09T00:17:30;100995.69;;;8.45;65.33
53868;BME280;41577;47.470;19.080;2023-05-09T00:17:42;100993.03;;;8.45;65.52
53868;BME280;41577;47.470;19.080;2023-05-09T00:17:54;100996.53;;;8.46;65.75
53868;BME280;41577;47.470;19.080;2023-05-09T00:18:06;100997.53;;;8.45;65.28
53868;BME280;41577;47.470;19.080;2023-05-09T00:18:17;100992.22;;;8.45;65.78
53868;BME280;41577;47.470;19.080;2023-05-09T00:18:29;100984.38;;;8.43;65.58
53868;BME280;41577;47.470;19.080;2023-05-09T00:18:41;100998.34;;;8.45;65.80
53868;BME280;41577;47.470;19.080;2023-05-09T00:18:52;100992.22;;;8.45;65.67
53868;BME280;41577;47.470;19.080;2023-05-09T00:19:04;100995.00;;;8.43;65.67
53868;BME280;41577;47.470;19.080;2023-05-09T00:19:16;100986.19;;;8.43;65.86
53868;BME280;41577;47.470;19.080;2023-05-09T00:19:28;100993.34;;;8.42;65.85
53868;BME280;41577;47.470;19.080;2023-05-09T00:19:39;101000.34;;;8.43;65.74
53868;BME280;41577;47.470;19.080;2023-05-09T00:19:51;100994.19;;;8.43;65.93
53868;BME280;41577;47.470;19.080;2023-05-09T00:20:04;100995.19;;;8.42;65.61
53868;BME280;41577;47.470;19.080;2023-05-09T00:20:16;100996.16;;;8.41;65.54
53868;BME280;41577;47.470;19.080;2023-05-09T00:20:28;100991.66;;;8.41;65.80
53868;BME280;41577;47.470;19.080;2023-05-09T00:20:40;100987.47;;;8.38;65.87
53868;BME280;41577;47.470;19.080;2023-05-09T00:20:51;100998.69;;;8.42;65.27
53868;BME280;41577;47.470;19.080;2023-05-09T00:21:03;100990.84;;;8.41;65.24
53868;BME280;41577;47.470;19.080;2023-05-09T00:21:15;100982.97;;;8.39;65.78
53868;BME280;41577;47.470;19.080;2023-05-09T00:21:27;100998.00;;;8.40;65.38
53868;BME280;41577;47.470;19.080;2023-05-09T00:21:38;100985.63;;;8.39;65.56
53868;BME280;41577;47.470;19.080;2023-05-09T00:21:50;100990.00;;;8.40;65.40
53868;BME280;41577;47.470;19.080;2023-05-09T00:22:02;100991.81;;;8.40;65.74
53868;BME280;41577;47.470;19.080;2023-05-09T00:22:14;100988.28;;;8.39;65.67
53868;BME280;41577;47.470;19.080;2023-05-09T00:22:26;100990.97;;;8.39;65.49
53868;BME280;41577;47.470;19.080;2023-05-09T00:22:38;100989.16;;;8.40;65.62
53868;BME280;41577;47.470;19.080;2023-05-09T00:22:50;100988.28;;;8.39;65.46
53868;BME280;41577;47.470;19.080;2023-05-09T00:23:02;100985.81;;;8.37;65.76
53868;BME280;41577;47.470;19.080;2023-05-09T00:23:14;100981.31;;;8.38;65.98
53868;BME280;41577;47.470;19.080;2023-05-09T00:23:25;100987.47;;;8.38;65.54
53868;BME280;41577;47.470;19.080;2023-05-09T00:23:37;100991.97;;;8.38;66.00
53868;BME280;41577;47.470;19.080;2023-05-09T00:23:49;100984.81;;;8.38;65.44
53868;BME280;41577;47.470;19.080;2023-05-09T00:24:01;100990.13;;;8.38;65.42
53868;BME280;41577;47.470;19.080;2023-05-09T00:24:12;100989.31;;;8.38;65.56
53868;BME280;41577;47.470;19.080;2023-05-09T00:24:24;100988.28;;;8.39;65.57
53868;BME280;41577;47.470;19.080;2023-05-09T00:24:37;100989.31;;;8.38;65.90
53868;BME280;41577;47.470;19.080;2023-05-09T00:24:49;100993.78;;;8.37;66.00
53868;BME280;41577;47.470;19.080;2023-05-09T00:25:01;100988.47;;;8.37;66.20
53868;BME280;41577;47.470;19.080;2023-05-09T00:25:12;100993.63;;;8.39;65.97
53868;BME280;41577;47.470;19.080;2023-05-09T00:25:24;100986.63;;;8.38;65.77
53868;BME280;41577;47.470;19.080;2023-05-09T00:25:36;100990.97;;;8.39;66.08
53868;BME280;41577;47.470;19.080;2023-05-09T00:25:48;100993.63;;;8.39;65.47
53868;BME280;41577;47.470;19.080;2023-05-09T00:26:00;100995.44;;;8.38;65.80
53868;BME280;41577;47.470;19.080;2023-05-09T00:26:11;100992.78;;;8.38;66.01
53868;BME280;41577;47.470;19.080;2023-05-09T00:26:26;100985.81;;;8.37;66.13
53868;BME280;41577;47.470;19.080;2023-05-09T00:26:38;100985.81;;;8.37;65.73
53868;BME280;41577;47.470;19.080;2023-05-09T00:26:50;100995.63;;;8.37;65.57
53868;BME280;41577;47.470;19.080;2023-05-09T00:27:02;100990.31;;;8.37;65.86
53868;BME280;41577;47.470;19.080;2023-05-09T00:27:14;100995.78;;;8.35;65.76
53868;BME280;41577;47.470;19.080;2023-05-09T00:27:25;100991.28;;;8.36;66.11
53868;BME280;41577;47.470;19.080;2023-05-09T00:27:37;100992.13;;;8.36;66.01
53868;BME280;41577;47.470;19.080;2023-05-09T00:27:49;100991.28;;;8.36;65.90
53868;BME280;41577;47.470;19.080;2023-05-09T00:28:01;100993.94;;;8.36;65.70
53868;BME280;41577;47.470;19.080;2023-05-09T00:28:12;100996.59;;;8.36;66.11
53868;BME280;41577;47.470;19.080;2023-05-09T00:28:24;100996.59;;;8.36;66.00
53868;BME280;41577;47.470;19.080;2023-05-09T00:28:36;100988.63;;;8.36;65.63
53868;BME280;41577;47.470;19.080;2023-05-09T00:28:48;100987.94;;;8.34;65.94
53868;BME280;41577;47.470;19.080;2023-05-09T00:28:59;100992.28;;;8.35;66.07
53868;BME280;41577;47.470;19.080;2023-05-09T00:29:11;100992.28;;;8.35;66.21
53868;BME280;41577;47.470;19.080;2023-05-09T00:29:23;100994.94;;;8.35;66.40
53868;BME280;41577;47.470;19.080;2023-05-09T00:29:35;100994.09;;;8.34;66.28
53868;BME280;41577;47.470;19.080;2023-05-09T00:29:46;100995.78;;;8.35;66.16
53868;BME280;41577;47.470;19.080;2023-05-09T00:29:58;100988.78;;;8.34;66.14
53868;BME280;41577;47.470;19.080;2023-05-09T00:30:10;100988.78;;;8.34;66.55
53868;BME280;41577;47.470;19.080;2023-05-09T00:30:22;100990.59;;;8.34;66.23
53868;BME280;41577;47.470;19.080;2023-05-09T00:30:34;100995.78;;;8.35;66.53
53868;BME280;41577;47.470;19.080;2023-05-09T00:30:46;100985.28;;;8.34;66.25
53868;BME280;41577;47.470;19.080;2023-05-09T00:30:57;100989.78;;;8.33;66.62
53868;BME280;41577;47.470;19.080;2023-05-09T00:31:09;100995.09;;;8.33;66.36
53868;BME280;41577;47.470;19.080;2023-05-09T00:31:21;100993.25;;;8.34;66.17
53868;BME280;41577;47.470;19.080;2023-05-09T00:31:33;100983.63;;;8.33;66.28
53868;BME280;41577;47.470;19.080;2023-05-09T00:31:45;100990.59;;;8.34;66.47
53868;BME280;41577;47.470;19.080;2023-05-09T00:31:56;100991.59;;;8.33;65.96
53868;BME280;41577;47.470;19.080;2023-05-09T00:32:08;100985.44;;;8.32;66.44
53868;BME280;41577;47.470;19.080;2023-05-09T00:32:20;100991.59;;;8.33;66.51
53868;BME280;41577;47.470;19.080;2023-05-09T00:32:32;100991.59;;;8.33;66.06
53868;BME280;41577;47.470;19.080;2023-05-09T00:32:44;100985.44;;;8.32;65.94
53868;BME280;41577;47.470;19.080;2023-05-09T00:32:56;100994.94;;;8.35;66.18
53868;BME280;41577;47.470;19.080;2023-05-09T00:33:07;100986.97;;;8.35;66.09
53868;BME280;41577;47.470;19.080;2023-05-09T00:33:19;100988.78;;;8.34;65.81
53868;BME280;41577;47.470;19.080;2023-05-09T00:33:31;100986.09;;;8.34;66.28
53868;BME280;41577;47.470;19.080;2023-05-09T00:33:43;100982.63;;;8.34;66.02
53868;BME280;41577;47.470;19.080;2023-05-09T00:33:55;100979.97;;;8.34;65.81
53868;BME280;41577;47.470;19.080;2023-05-09T00:34:06;100990.59;;;8.34;65.84
53868;BME280;41577;47.470;19.080;2023-05-09T00:34:18;100988.94;;;8.33;65.81
53868;BME280;41577;47.470;19.080;2023-05-09T00:34:30;100990.75;;;8.32;66.03
53868;BME280;41577;47.470;19.080;2023-05-09T00:34:42;100985.44;;;8.32;66.45
53868;BME280;41577;47.470;19.080;2023-05-09T00:34:53;100984.44;;;8.33;65.98
53868;BME280;41577;47.470;19.080;2023-05-09T00:35:06;100982.75;;;8.32;66.02
53868;BME280;41577;47.470;19.080;2023-05-09T00:35:18;100988.09;;;8.32;66.37
53868;BME280;41577;47.470;19.080;2023-05-09T00:35:30;100983.63;;;8.33;66.48
53868;BME280;41577;47.470;19.080;2023-05-09T00:35:41;100985.44;;;8.32;66.22
53868;BME280;41577;47.470;19.080;2023-05-09T00:35:53;100983.78;;;8.31;65.99
53868;BME280;41577;47.470;19.080;2023-05-09T00:36:06;100989.09;;;8.31;65.91
53868;BME280;41577;47.470;19.080;2023-05-09T00:36:17;100987.25;;;8.32;66.55
53868;BME280;41577;47.470;19.080;2023-05-09T00:36:29;100986.44;;;8.31;66.43
53868;BME280;41577;47.470;19.080;2023-05-09T00:36:41;100989.91;;;8.32;66.27
53868;BME280;41577;47.470;19.080;2023-05-09T00:36:53;100984.59;;;8.32;66.23
53868;BME280;41577;47.470;19.080;2023-05-09T00:37:04;100983.63;;;8.33;66.20
53868;BME280;41577;47.470;19.080;2023-05-09T00:37:16;100987.25;;;8.32;66.34
53868;BME280;41577;47.470;19.080;2023-05-09T00:37:28;100982.94;;;8.31;65.81
53868;BME280;41577;47.470;19.080;2023-05-09T00:37:40;100982.94;;;8.31;66.06
53868;BME280;41577;47.470;19.080;2023-05-09T00:37:51;100989.09;;;8.31;66.43
53868;BME280;41577;47.470;19.080;2023-05-09T00:38:03;100983.78;;;8.31;66.37
53868;BME280;41577;47.470;19.080;2023-05-09T00:38:15;100986.44;;;8.31;66.47
53868;BME280;41577;47.470;19.080;2023-05-09T00:38:27;100982.13;;;8.30;66.33
53868;BME280;41577;47.470;19.080;2023-05-09T00:38:38;100986.44;;;8.31;66.57
53868;BME280;41577;47.470;19.080;2023-05-09T00:38:50;100987.25;;;8.32;66.32
53868;BME280;41577;47.470;19.080;2023-05-09T00:39:02;100979.44;;;8.30;66.51
53868;BME280;41577;47.470;19.080;2023-05-09T00:39:14;100984.78;;;8.30;66.74
53868;BME280;41577;47.470;19.080;2023-05-09T00:39:25;100985.59;;;8.31;66.39
53868;BME280;41577;47.470;19.080;2023-05-09T00:39:38;100981.25;;;8.30;66.93
53868;BME280;41577;47.470;19.080;2023-05-09T00:39:50;100980.28;;;8.31;66.58
53868;BME280;41577;47.470;19.080;2023-05-09T00:40:03;100986.56;;;8.30;66.62
53868;BME280;41577;47.470;19.080;2023-05-09T00:40:15;100992.91;;;8.29;66.98
53868;BME280;41577;47.470;19.080;2023-05-09T00:40:27;100984.78;;;8.30;67.02
53868;BME280;41577;47.470;19.080;2023-05-09T00:40:38;100983.09;;;8.29;66.65
53868;BME280;41577;47.470;19.080;2023-05-09T00:40:50;100986.56;;;8.30;66.75
53868;BME280;41577;47.470;19.080;2023-05-09T00:41:02;100979.59;;;8.29;66.52
53868;BME280;41577;47.470;19.080;2023-05-09T00:41:14;100979.59;;;8.29;66.71
53868;BME280;41577;47.470;19.080;2023-05-09T00:41:26;100987.59;;;8.29;67.01
53868;BME280;41577;47.470;19.080;2023-05-09T00:41:37;100984.09;;;8.28;66.46
53868;BME280;41577;47.470;19.080;2023-05-09T00:41:50;100981.72;;;8.25;66.40
53868;BME280;41577;47.470;19.080;2023-05-09T00:42:01;100983.22;;;8.28;66.73
53868;BME280;41577;47.470;19.080;2023-05-09T00:42:13;100982.41;;;8.27;66.32
53868;BME280;41577;47.470;19.080;2023-05-09T00:42:25;100979.75;;;8.27;66.45
53868;BME280;41577;47.470;19.080;2023-05-09T00:42:37;100983.41;;;8.26;66.74
53868;BME280;41577;47.470;19.080;2023-05-09T00:42:49;100983.41;;;8.26;66.93
53868;BME280;41577;47.470;19.080;2023-05-09T00:43:00;100983.41;;;8.26;66.55
53868;BME280;41577;47.470;19.080;2023-05-09T00:43:12;100983.56;;;8.25;66.39
53868;BME280;41577;47.470;19.080;2023-05-09T00:43:24;100979.94;;;8.26;66.43
53868;BME280;41577;47.470;19.080;2023-05-09T00:43:35;100978.09;;;8.26;66.92
53868;BME280;41577;47.470;19.080;2023-05-09T00:43:47;100986.91;;;8.27;66.37
53868;BME280;41577;47.470;19.080;2023-05-09T00:43:59;100971.25;;;8.24;66.47
53868;BME280;41577;47.470;19.080;2023-05-09T00:44:11;100982.59;;;8.26;66.68
53868;BME280;41577;47.470;19.080;2023-05-09T00:44:22;100980.06;;;8.24;66.42
53868;BME280;41577;47.470;19.080;2023-05-09T00:44:34;100986.22;;;8.25;66.60
53868;BME280;41577;47.470;19.080;2023-05-09T00:44:46;100977.41;;;8.24;66.95
53868;BME280;41577;47.470;19.080;2023-05-09T00:44:58;100988.06;;;8.24;66.63
53868;BME280;41577;47.470;19.080;2023-05-09T00:45:10;100989.88;;;8.24;66.95
53868;BME280;41577;47.470;19.080;2023-05-09T00:45:23;100981.03;;;8.23;66.74
53868;BME280;41577;47.470;19.080;2023-05-09T00:45:34;100986.38;;;8.23;66.92
53868;BME280;41577;47.470;19.080;2023-05-09T00:45:47;100990.03;;;8.22;66.90
53868;BME280;41577;47.470;19.080;2023-05-09T00:45:59;100984.84;;;8.21;66.43
53868;BME280;41577;47.470;19.080;2023-05-09T00:46:11;100984.72;;;8.22;66.59
53868;BME280;41577;47.470;19.080;2023-05-09T00:46:22;100981.22;;;8.22;66.88
53868;BME280;41577;47.470;19.080;2023-05-09T00:46:34;100986.53;;;8.22;66.82
53868;BME280;41577;47.470;19.080;2023-05-09T00:46:46;100983.06;;;8.21;67.00
53868;BME280;41577;47.470;19.080;2023-05-09T00:46:58;100980.53;;;8.20;66.95
53868;BME280;41577;47.470;19.080;2023-05-09T00:47:10;100983.19;;;8.20;66.85
53868;BME280;41577;47.470;19.080;2023-05-09T00:47:22;100985.03;;;8.19;67.17
53868;BME280;41577;47.470;19.080;2023-05-09T00:47:34;100984.03;;;8.20;66.79
53868;BME280;41577;47.470;19.080;2023-05-09T00:47:46;100980.53;;;8.20;67.47
53868;BME280;41577;47.470;19.080;2023-05-09T00:47:57;100982.38;;;8.19;67.38
53868;BME280;41577;47.470;19.080;2023-05-09T00:48:09;100986.84;;;8.18;67.28
53868;BME280;41577;47.470;19.080;2023-05-09T00:48:21;100981.50;;;8.18;66.95
53868;BME280;41577;47.470;19.080;2023-05-09T00:48:33;100984.19;;;8.18;67.43
53868;BME280;41577;47.470;19.080;2023-05-09T00:48:45;100984.19;;;8.18;66.94
53868;BME280;41577;47.470;19.080;2023-05-09T00:48:57;100986.00;;;8.18;67.15
53868;BME280;41577;47.470;19.080;2023-05-09T00:49:09;100984.19;;;8.18;67.25
53868;BME280;41577;47.470;19.080;2023-05-09T00:49:21;100980.69;;;8.18;67.32
53868;BME280;41577;47.470;19.080;2023-05-09T00:49:33;100988.66;;;8.18;67.53
53868;BME280;41577;47.470;19.080;2023-05-09T00:49:45;100980.69;;;8.18;67.17
53868;BME280;41577;47.470;19.080;2023-05-09T00:49:57;100982.50;;;8.17;67.21
53868;BME280;41577;47.470;19.080;2023-05-09T00:50:09;100989.50;;;8.18;67.04
53868;BME280;41577;47.470;19.080;2023-05-09T00:50:21;100979.03;;;8.17;66.89
53868;BME280;41577;47.470;19.080;2023-05-09T00:50:33;100983.53;;;8.16;67.57
53868;BME280;41577;47.470;19.080;2023-05-09T00:50:45;100986.00;;;8.18;67.56
53868;BME280;41577;47.470;19.080;2023-05-09T00:50:56;100978.19;;;8.16;67.64
53868;BME280;41577;47.470;19.080;2023-05-09T00:51:08;100985.19;;;8.17;67.75
53868;BME280;41577;47.470;19.080;2023-05-09T00:51:20;100987.00;;;8.17;68.12
53868;BME280;41577;47.470;19.080;2023-05-09T00:51:32;100980.88;;;8.16;67.65
53868;BME280;41577;47.470;19.080;2023-05-09T00:51:44;100980.00;;;8.16;67.62
53868;BME280;41577;47.470;19.080;2023-05-09T00:51:56;100979.19;;;8.15;67.53
53868;BME280;41577;47.470;19.080;2023-05-09T00:52:08;100982.84;;;8.14;67.60
53868;BME280;41577;47.470;19.080;2023-05-09T00:52:20;100986.31;;;8.15;67.30
53868;BME280;41577;47.470;19.080;2023-05-09T00:52:32;100981.97;;;8.14;67.44
53868;BME280;41577;47.470;19.080;2023-05-09T00:52:44;100987.97;;;8.16;67.55
53868;BME280;41577;47.470;19.080;2023-05-09T00:52:57;100981.16;;;8.13;67.62
53868;BME280;41577;47.470;19.080;2023-05-09T00:53:10;100981.00;;;8.15;67.88
53868;BME280;41577;47.470;19.080;2023-05-09T00:53:23;100986.31;;;8.15;68.08
53868;BME280;41577;47.470;19.080;2023-05-09T00:53:35;100987.16;;;8.15;68.20
53868;BME280;41577;47.470;19.080;2023-05-09T00:53:47;100976.50;;;8.15;68.07
53868;BME280;41577;47.470;19.080;2023-05-09T00:53:58;100981.84;;;8.15;67.59
53868;BME280;41577;47.470;19.080;2023-05-09T00:54:11;100985.50;;;8.14;67.58
53868;BME280;41577;47.470;19.080;2023-05-09T00:54:22;100987.97;;;8.16;67.82
53868;BME280;41577;47.470;19.080;2023-05-09T00:54:34;100979.19;;;8.15;67.65
53868;BME280;41577;47.470;19.080;2023-05-09T00:54:48;100985.31;;;8.16;67.65
53868;BME280;41577;47.470;19.080;2023-05-09T00:55:00;100982.84;;;8.14;68.04
53868;BME280;41577;47.470;19.080;2023-05-09T00:55:13;100989.00;;;8.15;68.05
53868;BME280;41577;47.470;19.080;2023-05-09T00:55:26;100980.19;;;8.14;67.96
53868;BME280;41577;47.470;19.080;2023-05-09T00:55:37;100984.63;;;8.14;67.77
53868;BME280;41577;47.470;19.080;2023-05-09T00:55:49;100978.50;;;8.13;68.19
53868;BME280;41577;47.470;19.080;2023-05-09T00:56:01;100980.31;;;8.13;67.86
53868;BME280;41577;47.470;19.080;2023-05-09T00:56:13;100983.81;;;8.13;67.76
53868;BME280;41577;47.470;19.080;2023-05-09T00:56:25;100981.16;;;8.13;68.18
53868;BME280;41577;47.470;19.080;2023-05-09T00:56:37;100982.84;;;8.14;68.21
53868;BME280;41577;47.470;19.080;2023-05-09T00:56:49;100989.13;;;8.13;68.08
53868;BME280;41577;47.470;19.080;2023-05-09T00:57:01;100988.16;;;8.14;68.13
53868;BME280;41577;47.470;19.080;2023-05-09T00:57:13;100983.81;;;8.13;68.02
53868;BME280;41577;47.470;19.080;2023-05-09T00:57:25;100984.63;;;8.14;67.70
53868;BME280;41577;47.470;19.080;2023-05-09T00:57:36;100986.47;;;8.13;67.91
53868;BME280;41577;47.470;19.080;2023-05-09T00:57:48;100983.81;;;8.13;67.98
53868;BME280;41577;47.470;19.080;2023-05-09T00:58:01;100982.16;;;8.12;67.93
53868;BME280;41577;47.470;19.080;2023-05-09T00:58:13;100979.50;;;8.12;68.03
53868;BME280;41577;47.470;19.080;2023-05-09T00:58:25;100992.78;;;8.12;67.96
53868;BME280;41577;47.470;19.080;2023-05-09T00:58:37;100991.28;;;8.10;67.78
53868;BME280;41577;47.470;19.080;2023-05-09T00:58:49;100984.97;;;8.11;68.05
53868;BME280;41577;47.470;19.080;2023-05-09T00:59:01;100980.47;;;8.11;68.13
53868;BME280;41577;47.470;19.080;2023-05-09T00:59:13;100984.81;;;8.12;68.11
53868;BME280;41577;47.470;19.080;2023-05-09T00:59:27;100981.47;;;8.10;67.89
53868;BME280;41577;47.470;19.080;2023-05-09T00:59:39;100980.47;;;8.11;67.95
53868;BME280;41577;47.470;19.080;2023-05-09T00:59:51;100990.28;;;8.11;67.57
53868;BME280;41577;47.470;19.080;2023-05-09T01:00:04;100987.63;;;8.11;67.83
53868;BME280;41577;47.470;19.080;2023-05-09T01:00:16;100984.13;;;8.10;67.70
53868;BME280;41577;47.470;19.080;2023-05-09T01:00:28;100993.09;;;8.09;67.99
53868;BME280;41577;47.470;19.080;2023-05-09T01:00:40;100992.13;;;8.10;68.34
53868;BME280;41577;47.470;19.080;2023-05-09T01:00:52;100985.09;;;8.09;68.40
53868;BME280;41577;47.470;19.080;2023-05-09T01:01:04;100989.47;;;8.10;67.77
53868;BME280;41577;47.470;19.080;2023-05-09T01:01:16;100988.63;;;8.10;68.27
53868;BME280;41577;47.470;19.080;2023-05-09T01:01:28;100990.44;;;8.09;67.69
53868;BME280;41577;47.470;19.080;2023-05-09T01:01:39;100986.13;;;8.08;68.04
53868;BME280;41577;47.470;19.080;2023-05-09T01:01:51;100986.13;;;8.08;67.93
53868;BME280;41577;47.470;19.080;2023-05-09T01:02:03;100985.09;;;8.09;67.99
53868;BME280;41577;47.470;19.080;2023-05-09T01:02:15;100990.44;;;8.09;68.22